Ban Chae Son, Thailand

8:41 AM +07 on September 21, 2017 (GMT +0700)
Mae Ta, Mae Ta, Chiang Mai 50130, Thailand | | Change Station

Elev 1532 ft 18.59 °N, 99.26 °E | Updated 11 seconds ago

Partly Cloudy
Partly Cloudy
77.5 °F
Feels Like 79 °F
N
0.0
Wind Variable Wind from SSW
Gusts 0.0 mph

Today
High -- | Low -- °F
--% Chance of Precip.
Yesterday
High -- | Low -- °F
Precip. -- in
Pressure 29.86 in
Visibility 6.2 miles
Clouds Scattered Clouds 4000 ft
Heat Index 79 °F
Dew Point 74 °F
Humidity 89%
Rainfall 0.00 in
Snow Depth Not available.
6:10 AM 6:19 PM
New Moon, 1% visible
METAR VTCC 210130Z 00000KT 9999 SCT040 27/22 Q1011 NOSIG
Pressure 29.86 in
Visibility 6.2 miles
Clouds Scattered Clouds 4000 ft
Heat Index 79 °F
Dew Point 74 °F
Humidity 89%
Rainfall 0.00 in
Snow Depth Not available.
6:10 AM 6:19 PM
New Moon, 1% visible
METAR VTCC 210130Z 00000KT 9999 SCT040 27/22 Q1011 NOSIG

Get Severe Weather Alerts

Thanks for signing up!

Be on the lookout for a verification email in your inbox.

You'll start receiving the daily forecast at 6 AM.

×

10-Day Weather Forecast

No radar image for this location.
×

Almanac

Astronomy

Sep. 21, 2017 Rise Set
Actual Time
Civil Twilight
Nautical Twilight
Astronomical Twilight
Moon
Length of Visible Light
Length of Day
Tomorrow will be .
, % of the Moon is Illuminated

Today's Extremes

Country Highs Country Lows

Community

WunderPhotos

Category 6

Welcome to Category 6. This is the collective home for Weather Underground's featured writeups by Dr. Jeff Masters (right), Bob Henson (left), Chris Burt, and other regular contributors.

Nearby

Air Quality

  Air Quality AQ Index Pollutant
Not available.

Snow Depth

Station Depth Elevation

Earthquake Activity

City Distance Mag. Time & Date
Minimum magnitude displayed is 2.5.

Coastal Water Temperatures

Place Temperature

Stations

Nearby Weather Stations

Station Location Temp. Windchill Dew Point Humidity Wind Precip. Elev Updated Type